createdAt,value
2019-04-16T00:00:53.860Z,10.58
2019-04-16T00:03:24.924Z,9.15
2019-04-16T00:05:59.157Z,8.63
2019-04-16T00:08:30.567Z,9.40
2019-04-16T00:11:02.674Z,27.70
2019-04-16T00:13:35.132Z,9.80
2019-04-16T00:16:06.125Z,9.08
2019-04-16T00:18:39.006Z,8.68
2019-04-16T00:21:11.541Z,8.85
2019-04-16T00:23:46.564Z,9.33
2019-04-16T00:26:16.640Z,9.18
2019-04-16T00:28:47.477Z,9.65
2019-04-16T00:31:18.283Z,9.68
2019-04-16T00:33:49.346Z,9.45
2019-04-16T00:36:20.080Z,9.43
2019-04-16T00:38:53.914Z,8.73
2019-04-16T00:41:23.049Z,9.35
2019-04-16T00:43:56.030Z,8.63
2019-04-16T00:46:26.910Z,9.75
2019-04-16T00:48:58.222Z,21.62
2019-04-16T00:51:29.284Z,8.23
2019-04-16T00:54:00.074Z,8.50
2019-04-16T00:56:31.955Z,8.60
2019-04-16T00:59:02.750Z,9.70
2019-04-16T01:01:33.669Z,9.35
2019-04-16T01:04:05.516Z,11.38
2019-04-16T01:06:37.957Z,11.05
2019-04-16T01:09:09.320Z,10.40
2019-04-16T01:11:41.320Z,10.32
2019-04-16T01:14:12.294Z,11.28
2019-04-16T01:16:43.160Z,10.85
2019-04-16T01:19:17.614Z,10.03
2019-04-16T01:21:49.678Z,10.63
2019-04-16T01:24:21.921Z,9.55
2019-04-16T01:26:55.427Z,9.28
2019-04-16T01:29:24.950Z,11.08
2019-04-16T01:31:58.250Z,9.85
2019-04-16T01:34:29.801Z,9.75
2019-04-16T01:37:02.448Z,9.85
2019-04-16T01:39:34.847Z,10.58
2019-04-16T01:42:06.139Z,11.00
2019-04-16T01:44:37.180Z,10.40
2019-04-16T01:47:08.554Z,10.95
2019-04-16T01:49:42.220Z,10.93
2019-04-16T01:52:12.067Z,9.93
2019-04-16T01:54:43.990Z,9.48
2019-04-16T01:57:14.700Z,10.68
2019-04-16T01:59:46.598Z,10.82
2019-04-16T02:02:21.663Z,11.10
2019-04-16T02:04:52.795Z,10.58
2019-04-16T02:07:27.686Z,10.95
2019-04-16T02:09:57.164Z,10.88
2019-04-16T02:12:28.717Z,10.32
2019-04-16T02:14:59.851Z,10.88
2019-04-16T02:17:33.454Z,9.93
2019-04-16T02:20:10.926Z,9.90
2019-04-16T02:25:12.851Z,10.30
2019-04-16T02:27:48.742Z,10.70
2019-04-16T02:30:29.597Z,10.97
2019-04-16T02:33:00.525Z,10.78
2019-04-16T02:35:40.117Z,10.98
2019-04-16T02:41:02.378Z,11.43
2019-04-16T02:43:40.038Z,10.72
2019-04-16T02:46:30.886Z,12.15
2019-04-16T02:49:10.608Z,11.25
2019-04-16T02:51:45.959Z,16.30
2019-04-16T02:57:12.116Z,12.10
2019-04-16T02:59:47.339Z,12.90
2019-04-16T03:02:22.712Z,10.98
2019-04-16T03:04:52.877Z,11.15
2019-04-16T03:07:23.779Z,11.95
2019-04-16T03:10:01.272Z,11.18
2019-04-16T03:12:27.785Z,12.33
2019-04-16T03:15:01.065Z,13.35
2019-04-16T03:17:32.684Z,12.78
2019-04-16T03:20:05.070Z,13.38
2019-04-16T03:22:39.384Z,12.20
2019-04-16T03:25:13.626Z,11.40
2019-04-16T03:27:43.328Z,11.75
2019-04-16T03:30:15.757Z,11.33
2019-04-16T03:32:48.013Z,11.55
2019-04-16T03:35:19.057Z,10.78
2019-04-16T03:37:49.938Z,11.65
2019-04-16T03:40:24.935Z,14.93
2019-04-16T03:43:05.604Z,19.30
2019-04-16T03:45:41.730Z,12.43
2019-04-16T03:48:20.653Z,11.90
2019-04-16T03:51:12.679Z,12.35
2019-04-16T03:53:58.898Z,12.70
2019-04-16T03:56:27.656Z,13.58
2019-04-16T03:59:13.745Z,11.97
2019-04-16T04:01:46.194Z,11.22
2019-04-16T04:04:17.068Z,11.03
2019-04-16T04:07:18.010Z,10.63
2019-04-16T04:09:25.335Z,11.50
2019-04-16T04:11:57.290Z,10.63
2019-04-16T04:14:37.002Z,11.53
2019-04-16T04:17:07.897Z,11.40
2019-04-16T04:19:38.825Z,11.22
2019-04-16T04:22:09.660Z,12.40
2019-04-16T04:24:41.695Z,12.03
2019-04-16T04:27:14.356Z,10.68
2019-04-16T04:30:00.432Z,10.65
2019-04-16T04:32:32.466Z,11.00
2019-04-16T04:35:03.623Z,10.90
2019-04-16T04:37:35.578Z,11.18
2019-04-16T04:40:07.778Z,9.83
2019-04-16T04:42:38.899Z,10.70
2019-04-16T04:45:10.580Z,10.60
2019-04-16T04:47:41.491Z,11.75
2019-04-16T04:50:12.518Z,10.82
2019-04-16T04:52:45.992Z,11.15
2019-04-16T04:55:16.740Z,14.07
2019-04-16T04:57:47.428Z,11.55
2019-04-16T05:00:18.658Z,11.10
2019-04-16T05:02:49.467Z,10.63
2019-04-16T05:05:25.943Z,12.33
2019-04-16T05:07:59.666Z,11.08
2019-04-16T05:10:36.900Z,10.48
2019-04-16T05:13:06.707Z,10.90
2019-04-16T05:15:37.755Z,10.23
2019-04-16T05:18:09.913Z,11.08
2019-04-16T05:20:41.018Z,10.25
2019-04-16T05:23:12.134Z,10.35
2019-04-16T05:25:43.042Z,10.15
2019-04-16T05:28:13.687Z,11.55
2019-04-16T05:30:44.836Z,10.78
2019-04-16T05:33:15.863Z,10.15
2019-04-16T05:36:05.027Z,9.85
2019-04-16T05:38:30.899Z,9.68
2019-04-16T05:41:12.473Z,10.20
2019-04-16T05:43:36.213Z,10.48
2019-04-16T05:46:08.966Z,11.00
2019-04-16T05:48:41.253Z,11.60
2019-04-16T05:51:12.323Z,11.35
2019-04-16T05:53:46.992Z,11.22
2019-04-16T05:56:23.942Z,11.05
2019-04-16T05:58:54.227Z,11.70
2019-04-16T06:01:26.366Z,11.90
2019-04-16T06:05:21.023Z,11.10
2019-04-16T06:06:44.323Z,10.65
2019-04-16T06:09:16.601Z,10.93
2019-04-16T06:11:47.308Z,11.90
2019-04-16T06:14:19.818Z,10.85
2019-04-16T06:16:56.939Z,10.53
2019-04-16T06:19:28.453Z,9.58
2019-04-16T06:22:00.778Z,9.70
2019-04-16T06:24:35.781Z,11.08
2019-04-16T06:27:07.286Z,10.43
2019-04-16T06:29:38.286Z,10.32
2019-04-16T06:32:12.197Z,10.23
2019-04-16T06:34:45.566Z,10.88
2019-04-16T06:37:20.278Z,10.60
2019-04-16T06:39:51.659Z,11.35
2019-04-16T06:42:25.999Z,11.33
2019-04-16T06:48:12.857Z,12.33
2019-04-16T06:50:43.665Z,11.55
2019-04-16T06:53:15.861Z,10.88
2019-04-16T06:55:47.839Z,10.63
2019-04-16T06:58:27.749Z,11.75
2019-04-16T07:00:59.305Z,11.35
2019-04-16T07:03:32.445Z,10.85
2019-04-16T07:06:03.963Z,10.43
2019-04-16T07:08:38.108Z,16.90
2019-04-16T07:11:16.663Z,11.12
2019-04-16T07:13:47.598Z,9.50
2019-04-16T07:16:20.923Z,10.35
2019-04-16T07:18:51.794Z,12.00
2019-04-16T07:21:22.520Z,10.48
2019-04-16T07:23:56.867Z,11.12
2019-04-16T07:26:29.738Z,11.28
2019-04-16T07:29:01.927Z,10.03
2019-04-16T07:31:36.008Z,9.95
2019-04-16T07:34:08.136Z,10.08
2019-04-16T07:36:40.142Z,10.20
2019-04-16T07:39:28.205Z,9.70
2019-04-16T07:41:48.289Z,10.55
2019-04-16T07:44:20.235Z,10.30
2019-04-16T07:46:53.634Z,9.73
2019-04-16T07:49:33.503Z,9.98
2019-04-16T07:52:07.292Z,11.25
2019-04-16T07:54:38.603Z,11.25
2019-04-16T07:57:09.315Z,9.25
2019-04-16T07:59:40.529Z,9.50
2019-04-16T08:02:11.408Z,9.65
2019-04-16T08:04:42.282Z,10.03
2019-04-16T08:07:13.283Z,10.53
2019-04-16T08:09:44.389Z,10.10
2019-04-16T08:12:29.297Z,10.03
2019-04-16T08:15:18.548Z,10.48
2019-04-16T08:17:42.843Z,11.05
2019-04-16T08:20:13.390Z,11.12
2019-04-16T08:22:47.197Z,10.55
2019-04-16T08:25:20.448Z,10.58
2019-04-16T08:27:54.278Z,10.78
2019-04-16T08:30:34.642Z,11.65
2019-04-16T08:33:03.653Z,11.03
2019-04-16T08:35:35.119Z,12.30
2019-04-16T08:38:06.994Z,12.43
2019-04-16T08:40:40.312Z,12.03
2019-04-16T08:43:19.239Z,12.68
2019-04-16T08:45:51.967Z,13.25
2019-04-16T08:48:31.754Z,12.40
2019-04-16T08:51:06.896Z,11.60
2019-04-16T08:53:40.597Z,11.73
2019-04-16T08:56:11.688Z,12.50
2019-04-16T08:58:42.534Z,12.63
2019-04-16T09:01:15.492Z,12.37
2019-04-16T09:03:53.273Z,13.05
2019-04-16T09:06:21.393Z,13.22
2019-04-16T09:08:53.831Z,11.97
2019-04-16T09:11:28.346Z,11.88
2019-04-16T09:13:58.998Z,13.30
2019-04-16T09:16:29.959Z,13.58
2019-04-16T09:19:01.989Z,11.85
2019-04-16T09:21:33.017Z,12.65
2019-04-16T09:24:09.925Z,12.53
2019-04-16T09:26:43.725Z,16.62
2019-04-16T09:29:14.978Z,12.23
2019-04-16T09:31:47.373Z,13.55
2019-04-16T09:34:19.898Z,12.82
2019-04-16T09:36:54.271Z,13.60
2019-04-16T09:39:25.519Z,14.03
2019-04-16T09:42:05.530Z,13.22
2019-04-16T09:47:14.956Z,13.00
2019-04-16T09:49:46.255Z,14.73
2019-04-16T09:52:19.955Z,13.25
2019-04-16T09:54:49.508Z,12.05
2019-04-16T09:57:20.308Z,12.55
2019-04-16T09:59:56.569Z,11.38
2019-04-16T10:02:28.704Z,13.38
2019-04-16T10:04:59.767Z,12.68
2019-04-16T10:07:30.764Z,11.85
2019-04-16T10:10:01.616Z,10.25
2019-04-16T10:12:32.673Z,10.13
2019-04-16T10:15:03.427Z,11.85
2019-04-16T10:17:53.426Z,9.98
2019-04-16T10:20:26.372Z,10.58
2019-04-16T10:22:58.411Z,10.03
2019-04-16T10:25:33.501Z,11.65
2019-04-16T10:28:05.883Z,10.95
2019-04-16T10:30:39.622Z,10.55
2019-04-16T10:33:10.525Z,10.08
2019-04-16T10:35:41.368Z,10.72
2019-04-16T10:38:14.140Z,11.88
2019-04-16T10:40:46.599Z,9.90
2019-04-16T10:43:18.491Z,9.20
2019-04-16T10:45:53.139Z,9.58
2019-04-16T10:48:25.700Z,11.12
2019-04-16T10:51:00.688Z,9.95
2019-04-16T10:53:31.678Z,8.98
2019-04-16T10:56:03.895Z,9.95
2019-04-16T10:58:36.721Z,9.20
2019-04-16T11:01:09.034Z,11.50
2019-04-16T11:03:41.438Z,10.32
2019-04-16T11:06:18.083Z,10.40
2019-04-16T11:08:48.682Z,10.72
2019-04-16T11:11:19.754Z,11.35
2019-04-16T11:14:00.310Z,12.53
2019-04-16T11:16:25.523Z,11.95
2019-04-16T11:18:56.203Z,15.40
2019-04-16T11:21:27.119Z,12.00
2019-04-16T11:23:59.285Z,11.30
2019-04-16T11:26:30.185Z,15.28
2019-04-16T11:29:03.579Z,11.53
2019-04-16T11:31:34.661Z,13.90
2019-04-16T11:34:06.829Z,12.45
2019-04-16T11:36:39.323Z,12.25
2019-04-16T11:39:26.094Z,12.85
2019-04-16T11:42:00.984Z,13.32
2019-04-16T11:44:33.699Z,13.90
2019-04-16T11:47:10.927Z,14.07
2019-04-16T11:49:41.819Z,14.73
2019-04-16T11:52:15.923Z,14.23
2019-04-16T11:54:47.717Z,13.58
2019-04-16T11:57:19.033Z,13.35
2019-04-16T11:59:54.777Z,14.43
2019-04-16T12:02:23.606Z,11.45
2019-04-16T12:04:59.120Z,11.48
2019-04-16T12:07:27.816Z,12.73
2019-04-16T12:09:59.698Z,12.98
2019-04-16T12:12:32.171Z,12.65
2019-04-16T12:15:04.271Z,13.00
2019-04-16T12:17:36.872Z,14.68
2019-04-16T12:20:10.500Z,15.23
2019-04-16T12:22:43.297Z,15.32
2019-04-16T12:25:16.285Z,14.53
2019-04-16T12:27:48.420Z,13.78
2019-04-16T12:33:17.852Z,13.53
2019-04-16T12:35:49.863Z,12.98
2019-04-16T12:38:24.293Z,12.98
2019-04-16T12:43:36.482Z,12.95
2019-04-16T12:46:08.244Z,12.98
2019-04-16T12:48:40.444Z,12.18
2019-04-16T12:51:12.903Z,11.83
2019-04-16T12:53:45.378Z,12.60
2019-04-16T12:56:17.681Z,13.38
2019-04-16T12:58:51.329Z,13.13
2019-04-16T13:01:23.906Z,14.28
2019-04-16T13:03:55.967Z,14.68
2019-04-16T13:06:29.359Z,14.15
2019-04-16T13:09:01.424Z,14.90
2019-04-16T13:11:35.232Z,13.98
2019-04-16T13:14:07.415Z,12.63
2019-04-16T13:16:38.764Z,13.35
2019-04-16T13:19:11.015Z,12.75
2019-04-16T13:21:46.350Z,12.75
2019-04-16T13:24:18.570Z,12.20
2019-04-16T13:26:51.044Z,12.43
2019-04-16T13:29:37.370Z,11.97
2019-04-16T13:31:55.681Z,11.97
2019-04-16T13:34:27.442Z,12.20
2019-04-16T13:36:59.606Z,12.05
2019-04-16T13:39:32.698Z,11.60
2019-04-16T13:42:03.497Z,11.55
2019-04-16T13:44:42.386Z,10.45
2019-04-16T13:47:13.407Z,10.75
2019-04-16T13:50:02.597Z,10.10
2019-04-16T13:52:29.717Z,10.65
2019-04-16T13:55:01.771Z,11.03
2019-04-16T13:58:31.724Z,10.18
2019-04-16T14:00:51.136Z,9.88
2019-04-16T14:03:23.925Z,9.58
2019-04-16T14:05:56.646Z,9.98
2019-04-16T14:08:46.242Z,10.90
2019-04-16T14:11:19.847Z,9.90
2019-04-16T14:17:09.975Z,10.10
2019-04-16T14:22:21.639Z,9.75
2019-04-16T14:25:08.413Z,10.20
2019-04-16T14:27:39.353Z,10.10
2019-04-16T14:30:20.311Z,9.90
2019-04-16T14:32:51.142Z,10.10
2019-04-16T14:35:33.032Z,10.30
2019-04-16T14:37:56.207Z,10.85
2019-04-16T14:40:27.354Z,9.83
2019-04-16T14:43:02.730Z,10.70
2019-04-16T14:45:53.611Z,10.68
2019-04-16T14:48:08.895Z,11.18
2019-04-16T14:50:39.735Z,10.15
2019-04-16T14:53:11.769Z,10.40
2019-04-16T14:55:58.747Z,10.48
2019-04-16T14:58:17.396Z,10.38
2019-04-16T15:00:50.736Z,10.58
2019-04-16T15:03:23.020Z,9.68
2019-04-16T15:05:56.403Z,11.15
2019-04-16T15:08:29.112Z,11.33
2019-04-16T15:11:01.407Z,10.82
2019-04-16T15:13:33.777Z,10.40
2019-04-16T15:16:12.962Z,11.45
2019-04-16T15:18:40.130Z,11.33
2019-04-16T15:21:12.560Z,12.30
2019-04-16T15:23:45.544Z,11.70
2019-04-16T15:26:16.210Z,11.85
2019-04-16T15:28:48.935Z,12.47
2019-04-16T15:31:21.096Z,11.55
2019-04-16T15:33:51.621Z,11.95
2019-04-16T15:36:25.013Z,11.55
2019-04-16T15:38:58.653Z,11.88
2019-04-16T15:41:30.318Z,12.30
2019-04-16T15:44:02.523Z,12.45
2019-04-16T15:46:35.237Z,12.13
2019-04-16T15:49:08.085Z,11.50
2019-04-16T15:51:40.209Z,11.22
2019-04-16T15:54:20.765Z,12.18
2019-04-16T15:56:52.979Z,12.15
2019-04-16T15:59:25.122Z,11.15
2019-04-16T16:01:57.926Z,12.10
2019-04-16T16:04:30.115Z,13.03
2019-04-16T16:07:23.999Z,12.47
2019-04-16T16:09:52.454Z,12.40
2019-04-16T16:12:24.395Z,12.55
2019-04-16T16:14:56.748Z,11.15
2019-04-16T16:23:32.995Z,12.05
2019-04-16T16:27:19.096Z,12.43
2019-04-16T16:28:37.456Z,12.10
2019-04-16T16:32:45.419Z,12.43
2019-04-16T16:34:09.587Z,12.33
2019-04-16T16:36:48.290Z,11.95
2019-04-16T16:39:19.422Z,12.15
2019-04-16T16:42:13.639Z,12.05
2019-04-16T16:45:10.318Z,13.03
2019-04-16T16:47:58.835Z,13.43
2019-04-16T16:50:33.571Z,12.95
2019-04-16T16:53:11.073Z,12.88
2019-04-16T16:55:43.741Z,11.97
2019-04-16T16:58:17.988Z,13.55
2019-04-16T17:01:08.278Z,13.58
2019-04-16T17:03:25.991Z,13.60
2019-04-16T17:05:57.997Z,13.90
2019-04-16T17:08:30.277Z,13.72
2019-04-16T17:11:14.635Z,13.90
2019-04-16T17:13:33.404Z,13.58
2019-04-16T17:16:04.278Z,14.47
2019-04-16T17:18:35.209Z,14.30
2019-04-16T17:21:08.488Z,13.15
2019-04-16T17:23:39.314Z,13.80
2019-04-16T17:26:10.104Z,14.05
2019-04-16T17:28:44.237Z,13.35
2019-04-16T17:31:19.329Z,14.23
2019-04-16T17:33:51.388Z,13.85
2019-04-16T17:36:22.345Z,15.05
2019-04-16T17:38:52.983Z,13.83
2019-04-16T17:41:25.173Z,14.55
2019-04-16T17:44:01.875Z,13.48
2019-04-16T17:46:31.027Z,13.65
2019-04-16T17:49:03.015Z,13.95
2019-04-16T17:51:35.268Z,14.25
2019-04-16T17:54:07.379Z,14.63
2019-04-16T17:56:40.803Z,13.55
2019-04-16T17:59:12.716Z,13.68
2019-04-16T18:01:44.844Z,13.20
2019-04-16T18:04:16.883Z,14.45
2019-04-16T18:06:47.491Z,13.83
2019-04-16T18:09:19.929Z,14.53
2019-04-16T18:11:52.023Z,16.60
2019-04-16T18:14:24.440Z,19.48
2019-04-16T18:16:56.773Z,22.07
2019-04-16T18:19:29.006Z,23.92
2019-04-16T18:22:04.366Z,24.80
2019-04-16T18:24:34.667Z,23.77
2019-04-16T18:27:06.813Z,24.12
2019-04-16T18:29:38.853Z,23.73
2019-04-16T18:32:09.413Z,22.32
2019-04-16T18:34:43.479Z,21.85
2019-04-16T18:37:14.908Z,21.33
2019-04-16T18:39:47.173Z,21.57
2019-04-16T18:42:19.284Z,21.00
2019-04-16T18:44:53.887Z,21.82
2019-04-16T18:47:25.203Z,19.35
2019-04-16T18:49:57.253Z,18.82
2019-04-16T18:52:28.059Z,17.12
2019-04-16T18:54:59.012Z,18.02
2019-04-16T18:57:29.881Z,18.17
2019-04-16T19:00:00.607Z,16.80
2019-04-16T19:02:32.134Z,17.27
2019-04-16T19:05:03.388Z,17.27
2019-04-16T19:07:34.552Z,16.73
2019-04-16T19:10:06.496Z,15.68
2019-04-16T19:12:37.231Z,15.93
2019-04-16T19:15:08.960Z,15.93
2019-04-16T19:17:39.784Z,16.67
2019-04-16T19:20:11.119Z,15.32
2019-04-16T19:22:41.797Z,15.25
2019-04-16T19:25:12.832Z,15.10
2019-04-16T19:27:43.660Z,15.70
2019-04-16T19:30:14.629Z,16.52
2019-04-16T19:32:45.540Z,15.43
2019-04-16T19:35:19.138Z,15.68
2019-04-16T19:37:48.828Z,15.75
2019-04-16T19:40:19.615Z,15.58
2019-04-16T19:42:50.488Z,15.88
2019-04-16T19:45:21.695Z,15.25
2019-04-16T19:47:52.766Z,15.28
2019-04-16T19:50:23.741Z,15.50
2019-04-16T19:52:54.406Z,15.90
2019-04-16T19:55:25.326Z,15.85
2019-04-16T19:57:57.514Z,16.37
2019-04-16T20:00:28.862Z,15.83
2019-04-16T20:02:59.597Z,17.50
2019-04-16T20:05:30.647Z,16.35
2019-04-16T20:08:01.362Z,16.55
2019-04-16T20:10:32.111Z,17.30
2019-04-16T20:13:03.257Z,17.20
2019-04-16T20:15:34.055Z,17.10
2019-04-16T20:18:07.117Z,17.10
2019-04-16T20:20:37.752Z,16.20
2019-04-16T20:23:08.514Z,17.12
2019-04-16T20:25:39.507Z,16.73
2019-04-16T20:28:15.462Z,15.88
2019-04-16T20:30:42.627Z,16.75
2019-04-16T20:33:13.464Z,16.40
2019-04-16T20:35:44.182Z,16.93
2019-04-16T20:38:17.049Z,17.48
2019-04-16T20:40:47.487Z,16.80
2019-04-16T20:43:18.318Z,17.30
2019-04-16T20:45:49.147Z,16.85
2019-04-16T20:48:20.082Z,16.70
2019-04-16T20:50:53.016Z,16.60
2019-04-16T20:53:22.886Z,16.80
2019-04-16T20:55:53.826Z,17.40
2019-04-16T20:58:28.039Z,17.27
2019-04-16T21:00:58.364Z,17.02
2019-04-16T21:03:30.969Z,16.20
2019-04-16T21:06:01.519Z,16.32
2019-04-16T21:08:32.727Z,15.38
2019-04-16T21:11:07.657Z,17.48
2019-04-16T21:13:36.237Z,16.82
2019-04-16T21:16:07.272Z,16.12
2019-04-16T21:18:37.983Z,16.45
2019-04-16T21:21:08.969Z,17.25
2019-04-16T21:23:39.681Z,17.20
2019-04-16T21:26:10.563Z,16.23
2019-04-16T21:28:42.579Z,16.02
2019-04-16T21:31:14.862Z,16.15
2019-04-16T21:33:49.191Z,16.55
2019-04-16T21:36:20.649Z,15.50
2019-04-16T21:38:52.860Z,16.07
2019-04-16T21:41:25.557Z,15.72
2019-04-16T21:43:55.886Z,15.70
2019-04-16T21:46:27.358Z,16.55
2019-04-16T21:48:59.772Z,16.00
2019-04-16T21:51:30.704Z,16.30
2019-04-16T21:54:01.819Z,16.93
2019-04-16T21:56:32.484Z,16.85
2019-04-16T21:59:05.617Z,16.90
2019-04-16T22:01:37.117Z,17.15
2019-04-16T22:04:13.406Z,16.73
2019-04-16T22:06:41.554Z,16.73
2019-04-16T22:09:12.487Z,15.65
2019-04-16T22:11:44.533Z,16.05
2019-04-16T22:14:15.889Z,16.05
2019-04-16T22:16:46.862Z,14.98
2019-04-16T22:19:17.746Z,15.58
2019-04-16T22:21:48.525Z,14.63
2019-04-16T22:24:19.797Z,15.15
2019-04-16T22:26:51.611Z,13.62
2019-04-16T22:29:22.513Z,14.05
2019-04-16T22:31:57.005Z,14.25
2019-04-16T22:34:25.512Z,13.83
2019-04-16T22:36:56.389Z,13.88
2019-04-16T22:39:31.488Z,13.48
2019-04-16T22:42:03.700Z,13.58
2019-04-16T22:44:35.959Z,13.58
2019-04-16T22:47:08.655Z,12.93
2019-04-16T22:49:39.580Z,13.85
2019-04-16T22:52:12.476Z,13.65
2019-04-16T22:54:42.390Z,14.07
2019-04-16T22:57:14.420Z,13.98
2019-04-16T22:59:45.350Z,13.10
2019-04-16T23:02:17.828Z,13.83
2019-04-16T23:04:48.703Z,14.60
2019-04-16T23:07:23.307Z,14.23
2019-04-16T23:09:54.462Z,13.50
2019-04-16T23:12:28.076Z,14.00
2019-04-16T23:14:58.171Z,13.75
2019-04-16T23:17:33.973Z,14.47
2019-04-16T23:20:03.732Z,14.00
2019-04-16T23:22:34.832Z,14.83
2019-04-16T23:25:06.785Z,15.10
2019-04-16T23:27:38.221Z,16.23
2019-04-16T23:30:10.134Z,14.83
2019-04-16T23:32:40.875Z,15.85
2019-04-16T23:35:11.933Z,14.45
2019-04-16T23:37:42.867Z,15.15
2019-04-16T23:40:13.844Z,14.87
2019-04-16T23:42:47.481Z,14.75
2019-04-16T23:45:19.501Z,15.18
2019-04-16T23:47:51.713Z,16.00
2019-04-16T23:50:23.882Z,15.72
2019-04-16T23:52:56.126Z,14.68
2019-04-16T23:55:28.177Z,15.35
2019-04-16T23:57:58.699Z,15.43
